createdAt,value
2018-03-25T00:02:23.706Z,20.27
2018-03-25T00:04:52.015Z,17.40
2018-03-25T00:07:20.328Z,19.70
2018-03-25T00:09:48.668Z,18.87
2018-03-25T00:12:19.197Z,19.10
2018-03-25T00:14:47.447Z,21.50
2018-03-25T00:17:16.477Z,21.20
2018-03-25T00:19:44.712Z,21.30
2018-03-25T00:22:13.745Z,19.77
2018-03-25T00:24:42.040Z,19.53
2018-03-25T00:27:10.288Z,20.00
2018-03-25T00:29:38.556Z,18.10
2018-03-25T00:32:06.851Z,20.60
2018-03-25T00:34:35.126Z,20.90
2018-03-25T00:37:03.361Z,19.17
2018-03-25T00:39:32.411Z,20.47
2018-03-25T00:42:00.711Z,19.67
2018-03-25T00:44:28.934Z,18.70
2018-03-25T00:46:57.328Z,16.70
2018-03-25T00:49:26.340Z,19.97
2018-03-25T00:51:54.641Z,19.13
2018-03-25T00:54:22.958Z,20.60
2018-03-25T00:56:51.984Z,19.10
2018-03-25T00:59:20.228Z,21.10
2018-03-25T01:01:49.246Z,20.90
2018-03-25T01:04:18.301Z,19.03
2018-03-25T01:06:47.457Z,19.97
2018-03-25T01:09:15.749Z,17.70
2018-03-25T01:11:44.012Z,20.43
2018-03-25T01:14:13.025Z,18.10
2018-03-25T01:16:41.314Z,20.13
2018-03-25T01:19:10.630Z,18.43
2018-03-25T01:21:39.725Z,19.63
2018-03-25T01:24:07.977Z,18.07
2018-03-25T01:26:36.249Z,20.23
2018-03-25T01:29:04.526Z,18.83
2018-03-25T01:31:32.789Z,19.77
2018-03-25T01:34:01.071Z,17.90
2018-03-25T01:36:29.696Z,19.50
2018-03-25T01:38:57.929Z,19.17
2018-03-25T01:41:26.187Z,18.33
2018-03-25T01:43:54.463Z,21.27
2018-03-25T01:46:23.461Z,19.30
2018-03-25T01:48:51.716Z,17.90
2018-03-25T01:51:20.757Z,19.77
2018-03-25T01:53:49.020Z,18.70
2018-03-25T01:56:17.265Z,20.03
2018-03-25T01:58:45.569Z,19.40
2018-03-25T02:01:13.867Z,19.70
2018-03-25T02:03:42.113Z,19.60
2018-03-25T02:06:11.143Z,17.03
2018-03-25T02:08:39.408Z,20.30
2018-03-25T02:11:07.657Z,18.83
2018-03-25T02:13:36.679Z,17.20
2018-03-25T02:16:04.919Z,19.20
2018-03-25T02:18:33.961Z,19.23
2018-03-25T02:21:04.506Z,18.10
2018-03-25T02:23:33.591Z,18.23
2018-03-25T02:26:01.853Z,19.50
2018-03-25T02:28:30.086Z,18.93
2018-03-25T02:30:59.095Z,19.87
2018-03-25T02:33:28.104Z,18.47
2018-03-25T02:35:56.370Z,18.87
2018-03-25T02:38:25.365Z,16.83
2018-03-25T02:40:53.657Z,17.00
2018-03-25T02:43:21.908Z,18.07
2018-03-25T02:45:50.939Z,18.20
2018-03-25T02:48:19.187Z,18.07
2018-03-25T02:50:47.418Z,17.00
2018-03-25T02:53:15.718Z,17.20
2018-03-25T02:55:44.310Z,19.00
2018-03-25T02:58:12.561Z,17.67
2018-03-25T03:00:40.810Z,18.73
2018-03-25T03:03:09.064Z,17.27
2018-03-25T03:05:38.089Z,17.37
2018-03-25T03:08:06.310Z,18.73
2018-03-25T03:10:35.045Z,18.43
2018-03-25T03:13:03.322Z,16.80
2018-03-25T03:15:31.643Z,18.90
2018-03-25T03:17:59.885Z,17.87
2018-03-25T03:20:28.158Z,19.70
2018-03-25T03:22:56.392Z,19.17
2018-03-25T03:25:25.409Z,17.40
2018-03-25T03:27:53.682Z,18.47
2018-03-25T03:30:21.950Z,20.80
2018-03-25T03:32:50.242Z,18.33
2018-03-25T03:35:18.507Z,18.00
2018-03-25T03:37:47.803Z,19.57
2018-03-25T03:40:16.827Z,19.33
2018-03-25T03:42:45.098Z,19.40
2018-03-25T03:45:13.349Z,17.57
2018-03-25T03:47:41.602Z,20.53
2018-03-25T03:50:10.242Z,19.13
2018-03-25T03:52:38.768Z,18.90
2018-03-25T03:55:06.989Z,19.60
2018-03-25T03:57:35.654Z,20.17
2018-03-25T04:00:04.725Z,19.17
2018-03-25T04:02:33.034Z,18.30
2018-03-25T04:05:02.331Z,17.63
2018-03-25T04:07:32.316Z,19.87
2018-03-25T04:10:00.548Z,20.00
2018-03-25T04:12:29.597Z,18.27
2018-03-25T04:14:57.827Z,19.67
2018-03-25T04:17:26.103Z,19.27
2018-03-25T04:19:54.361Z,20.00
2018-03-25T04:22:23.376Z,19.93
2018-03-25T04:24:51.639Z,17.13
2018-03-25T04:27:20.651Z,19.10
2018-03-25T04:29:48.915Z,18.47
2018-03-25T04:32:17.948Z,17.50
2018-03-25T04:34:46.202Z,20.30
2018-03-25T04:37:14.449Z,19.40
2018-03-25T04:39:42.707Z,18.17
2018-03-25T04:42:10.976Z,19.87
2018-03-25T04:44:40.166Z,19.00
2018-03-25T04:47:08.409Z,18.93
2018-03-25T04:49:36.684Z,20.30
2018-03-25T04:52:04.919Z,18.90
2018-03-25T04:54:33.234Z,17.93
2018-03-25T04:57:01.524Z,18.10
2018-03-25T04:59:29.775Z,19.37
2018-03-25T05:01:58.815Z,19.10
2018-03-25T05:04:27.104Z,20.20
2018-03-25T05:06:55.362Z,15.57
2018-03-25T05:09:23.639Z,18.03
2018-03-25T05:11:52.271Z,19.23
2018-03-25T05:14:20.518Z,17.30
2018-03-25T05:16:48.808Z,18.30
2018-03-25T05:19:17.065Z,18.00
2018-03-25T05:21:45.305Z,19.83
2018-03-25T05:24:14.325Z,18.50
2018-03-25T05:26:42.590Z,18.87
2018-03-25T05:29:10.856Z,20.60
2018-03-25T05:31:39.875Z,20.30
2018-03-25T05:34:08.128Z,18.97
2018-03-25T05:36:36.385Z,19.20
2018-03-25T05:39:05.391Z,18.83
2018-03-25T05:41:34.420Z,18.73
2018-03-25T05:44:02.691Z,19.67
2018-03-25T05:46:30.934Z,19.37
2018-03-25T05:49:00.009Z,19.67
2018-03-25T05:51:28.248Z,19.60
2018-03-25T05:53:56.572Z,19.40
2018-03-25T05:56:25.534Z,20.60
2018-03-25T05:58:53.805Z,18.90
2018-03-25T06:01:22.085Z,17.37
2018-03-25T06:03:50.319Z,19.20
2018-03-25T06:06:19.314Z,19.87
2018-03-25T06:08:48.340Z,20.10
2018-03-25T06:11:16.610Z,20.60
2018-03-25T06:13:44.862Z,18.30
2018-03-25T06:16:13.914Z,19.53
2018-03-25T06:18:42.155Z,19.23
2018-03-25T06:21:10.436Z,17.23
2018-03-25T06:23:38.707Z,20.43
2018-03-25T06:26:07.003Z,19.47
2018-03-25T06:28:35.288Z,19.60
2018-03-25T06:31:03.531Z,18.80
2018-03-25T06:33:32.552Z,17.80
2018-03-25T06:36:00.812Z,19.00
2018-03-25T06:38:29.078Z,19.20
2018-03-25T06:41:00.047Z,17.03
2018-03-25T06:43:28.327Z,17.87
2018-03-25T06:45:56.596Z,19.50
2018-03-25T06:48:24.846Z,20.10
2018-03-25T06:50:53.862Z,18.77
2018-03-25T06:53:22.106Z,20.37
2018-03-25T06:55:50.399Z,17.93
2018-03-25T06:58:19.662Z,19.27
2018-03-25T07:00:48.260Z,20.17
2018-03-25T07:03:16.513Z,17.33
2018-03-25T07:05:44.747Z,18.00
2018-03-25T07:08:13.011Z,20.57
2018-03-25T07:10:41.285Z,20.23
2018-03-25T07:13:09.538Z,20.10
2018-03-25T07:15:38.573Z,18.77
2018-03-25T07:18:06.818Z,19.50
2018-03-25T07:20:35.852Z,19.67
2018-03-25T07:23:04.096Z,19.90
2018-03-25T07:25:33.135Z,20.00
2018-03-25T07:28:01.366Z,20.90
2018-03-25T07:30:30.402Z,21.13
2018-03-25T07:32:58.633Z,20.70
2018-03-25T07:35:26.900Z,21.50
2018-03-25T07:37:55.196Z,19.67
2018-03-25T07:40:23.439Z,20.87
2018-03-25T07:42:51.695Z,21.80
2018-03-25T07:45:19.948Z,22.00
2018-03-25T07:47:48.217Z,19.27
2018-03-25T07:50:17.246Z,19.17
2018-03-25T07:52:45.566Z,21.67
2018-03-25T07:55:13.847Z,20.40
2018-03-25T07:57:42.102Z,20.47
2018-03-25T08:00:10.370Z,18.67
2018-03-25T08:02:38.661Z,20.60
2018-03-25T08:05:06.934Z,19.43
2018-03-25T08:07:35.193Z,21.43
2018-03-25T08:10:03.446Z,21.33
2018-03-25T08:12:31.743Z,20.00
2018-03-25T08:15:00.001Z,20.30
2018-03-25T08:17:29.049Z,19.20
2018-03-25T08:19:57.274Z,19.80
2018-03-25T08:22:25.543Z,18.20
2018-03-25T08:24:54.580Z,18.27
2018-03-25T08:27:22.905Z,19.93
2018-03-25T08:29:51.156Z,19.00
2018-03-25T08:32:19.442Z,19.07
2018-03-25T08:34:47.715Z,20.10
2018-03-25T08:37:15.943Z,20.73
2018-03-25T08:39:44.214Z,20.53
2018-03-25T08:42:13.268Z,19.50
2018-03-25T08:44:41.548Z,18.03
2018-03-25T08:47:09.822Z,18.87
2018-03-25T08:49:38.099Z,18.80
2018-03-25T08:52:06.358Z,20.10
2018-03-25T08:54:34.636Z,20.10
2018-03-25T08:57:02.922Z,19.17
2018-03-25T08:59:32.168Z,22.07
2018-03-25T09:02:01.244Z,20.03
2018-03-25T09:04:29.507Z,17.93
2018-03-25T09:06:57.778Z,18.70
2018-03-25T09:09:26.027Z,19.40
2018-03-25T09:11:55.487Z,19.63
2018-03-25T09:14:24.520Z,18.40
2018-03-25T09:16:52.796Z,17.87
2018-03-25T09:19:21.081Z,18.83
2018-03-25T09:21:49.895Z,19.17
2018-03-25T09:24:18.167Z,18.10
2018-03-25T09:26:46.442Z,19.77
2018-03-25T09:29:15.540Z,19.43
2018-03-25T09:31:43.810Z,19.33
2018-03-25T09:34:12.062Z,18.10
2018-03-25T09:36:40.367Z,17.10
2018-03-25T09:39:10.367Z,16.20
2018-03-25T09:41:38.646Z,16.63
2018-03-25T09:44:09.287Z,16.80
2018-03-25T09:46:37.538Z,16.10
2018-03-25T09:49:05.792Z,16.03
2018-03-25T09:51:34.813Z,15.90
2018-03-25T09:54:03.149Z,16.10
2018-03-25T09:56:31.435Z,16.60
2018-03-25T09:58:59.691Z,14.97
2018-03-25T10:01:38.606Z,15.07
2018-03-25T10:04:06.882Z,14.47
2018-03-25T10:06:35.159Z,16.97
2018-03-25T10:09:03.440Z,16.40
2018-03-25T10:11:31.778Z,16.10
2018-03-25T10:14:00.039Z,14.50
2018-03-25T10:16:29.085Z,14.40
2018-03-25T10:18:57.462Z,15.80
2018-03-25T10:21:26.504Z,15.50
2018-03-25T10:23:54.796Z,15.30
2018-03-25T10:26:24.746Z,15.23
2018-03-25T10:28:53.066Z,14.50
2018-03-25T10:31:21.343Z,16.27
2018-03-25T10:33:49.643Z,14.97
2018-03-25T10:36:18.004Z,14.03
2018-03-25T10:38:46.283Z,14.90
2018-03-25T10:41:14.562Z,14.97
2018-03-25T10:43:42.861Z,15.77
2018-03-25T10:46:11.147Z,15.67
2018-03-25T10:48:40.180Z,14.93
2018-03-25T10:51:08.463Z,15.73
2018-03-25T10:53:36.769Z,15.17
2018-03-25T10:56:05.020Z,13.90
2018-03-25T10:58:33.314Z,14.80
2018-03-25T11:01:02.361Z,13.17
2018-03-25T11:03:30.656Z,14.93
2018-03-25T11:05:58.957Z,15.00
2018-03-25T11:08:27.256Z,15.20
2018-03-25T11:10:56.054Z,14.90
2018-03-25T11:13:24.307Z,13.90
2018-03-25T11:15:52.699Z,15.10
2018-03-25T11:18:21.766Z,17.20
2018-03-25T11:20:50.025Z,16.70
2018-03-25T11:23:18.363Z,16.87
2018-03-25T11:25:47.408Z,17.50
2018-03-25T11:28:15.712Z,16.00
2018-03-25T11:30:43.974Z,17.10
2018-03-25T11:33:12.297Z,18.20
2018-03-25T11:35:40.579Z,16.37
2018-03-25T11:38:08.868Z,14.93
2018-03-25T11:40:37.168Z,16.10
2018-03-25T11:43:05.416Z,16.50
2018-03-25T11:45:34.506Z,16.30
2018-03-25T11:48:02.746Z,15.80
2018-03-25T11:50:31.043Z,17.37
2018-03-25T11:53:00.082Z,15.50
2018-03-25T11:55:28.431Z,15.27
2018-03-25T11:57:56.765Z,15.80
2018-03-25T12:00:25.027Z,16.83
2018-03-25T12:02:53.336Z,14.67
2018-03-25T12:05:21.635Z,15.43
2018-03-25T12:07:50.695Z,20.00
2018-03-25T12:10:18.931Z,18.10
2018-03-25T12:12:47.234Z,18.37
2018-03-25T12:15:15.478Z,17.40
2018-03-25T12:17:43.791Z,16.50
2018-03-25T12:20:12.116Z,18.43
2018-03-25T12:22:40.403Z,20.53
2018-03-25T12:25:08.672Z,18.70
2018-03-25T12:27:36.916Z,18.03
2018-03-25T12:30:05.206Z,19.43
2018-03-25T12:32:33.467Z,19.00
2018-03-25T12:35:01.764Z,20.43
2018-03-25T12:37:30.016Z,19.80
2018-03-25T12:39:58.330Z,18.50
2018-03-25T12:42:26.615Z,19.40
2018-03-25T12:44:54.868Z,19.00
2018-03-25T12:47:23.234Z,19.83
2018-03-25T12:49:51.538Z,19.73
2018-03-25T12:52:20.340Z,19.30
2018-03-25T12:54:49.366Z,18.53
2018-03-25T12:57:17.683Z,20.37
2018-03-25T12:59:45.958Z,20.50
2018-03-25T13:02:14.208Z,19.97
2018-03-25T13:04:42.554Z,19.67
2018-03-25T13:07:10.816Z,20.43
2018-03-25T13:09:39.138Z,20.53
2018-03-25T13:12:08.617Z,19.47
2018-03-25T13:14:36.937Z,18.90
2018-03-25T13:17:05.209Z,21.80
2018-03-25T13:19:33.638Z,21.20
2018-03-25T13:22:01.888Z,19.43
2018-03-25T13:24:30.176Z,20.63
2018-03-25T13:26:58.471Z,19.97
2018-03-25T13:29:27.539Z,22.73
2018-03-25T13:31:55.852Z,20.23
2018-03-25T13:34:24.097Z,20.50
2018-03-25T13:36:52.491Z,20.73
2018-03-25T13:39:21.091Z,19.57
2018-03-25T13:41:50.172Z,22.00
2018-03-25T13:44:18.463Z,22.43
2018-03-25T13:46:46.733Z,21.33
2018-03-25T13:49:15.028Z,21.80
2018-03-25T13:51:44.065Z,21.77
2018-03-25T13:54:12.352Z,21.37
2018-03-25T13:56:40.652Z,22.37
2018-03-25T13:59:08.905Z,22.90
2018-03-25T14:01:37.182Z,19.60
2018-03-25T14:04:05.437Z,21.83
2018-03-25T14:06:33.733Z,21.63
2018-03-25T14:09:02.100Z,20.90
2018-03-25T14:11:30.388Z,21.17
2018-03-25T14:13:58.644Z,20.93
2018-03-25T14:16:27.809Z,23.03
2018-03-25T14:18:56.880Z,21.30
2018-03-25T14:21:25.504Z,22.57
2018-03-25T14:23:53.763Z,24.20
2018-03-25T14:26:22.026Z,25.13
2018-03-25T14:28:50.380Z,25.17
2018-03-25T14:31:19.414Z,25.47
2018-03-25T14:33:47.695Z,25.50
2018-03-25T14:36:15.959Z,23.70
2018-03-25T14:38:44.332Z,21.67
2018-03-25T14:41:12.615Z,22.97
2018-03-25T14:43:40.918Z,23.93
2018-03-25T14:46:09.171Z,22.70
2018-03-25T14:48:37.492Z,24.47
2018-03-25T14:51:06.538Z,25.30
2018-03-25T14:53:35.607Z,25.07
2018-03-25T14:56:03.928Z,22.80
2018-03-25T14:58:32.240Z,24.70
2018-03-25T15:01:00.523Z,26.87
2018-03-25T15:03:29.568Z,25.90
2018-03-25T15:05:57.825Z,26.90
2018-03-25T15:08:26.128Z,29.47
2018-03-25T15:10:54.374Z,29.00
2018-03-25T15:13:22.630Z,26.20
2018-03-25T15:15:50.898Z,28.70
2018-03-25T15:18:19.274Z,27.93
2018-03-25T15:20:48.338Z,30.90
2018-03-25T15:23:16.679Z,27.97
2018-03-25T15:25:45.049Z,30.10
2018-03-25T15:28:13.396Z,29.77
2018-03-25T15:30:41.894Z,29.83
2018-03-25T15:33:10.162Z,30.30
2018-03-25T15:35:38.528Z,28.77
2018-03-25T15:38:06.873Z,30.03
2018-03-25T15:40:35.228Z,32.60
2018-03-25T15:43:04.241Z,29.77
2018-03-25T15:45:32.564Z,28.20
2018-03-25T15:48:01.881Z,29.50
2018-03-25T15:50:30.394Z,30.97
2018-03-25T15:52:58.641Z,31.43
2018-03-25T15:55:26.952Z,31.10
2018-03-25T15:57:56.053Z,32.10
2018-03-25T16:00:24.348Z,29.40
2018-03-25T16:02:52.590Z,30.33
2018-03-25T16:05:21.051Z,28.60
2018-03-25T16:07:50.130Z,29.60
2018-03-25T16:10:18.829Z,27.60
2018-03-25T16:12:47.071Z,28.37
2018-03-25T16:15:15.502Z,29.70
2018-03-25T16:17:43.779Z,27.47
2018-03-25T16:20:12.038Z,26.40
2018-03-25T16:22:40.836Z,28.77
2018-03-25T16:25:10.104Z,30.83
2018-03-25T16:27:38.491Z,28.47
2018-03-25T16:30:06.766Z,27.40
2018-03-25T16:32:35.150Z,28.37
2018-03-25T16:35:03.592Z,28.40
2018-03-25T16:37:33.012Z,30.03
2018-03-25T16:40:01.994Z,28.47
2018-03-25T16:42:31.136Z,28.90
2018-03-25T16:44:59.528Z,29.87
2018-03-25T16:47:27.961Z,29.87
2018-03-25T16:49:56.202Z,31.63
2018-03-25T16:52:25.302Z,31.63
2018-03-25T16:54:54.466Z,31.17
2018-03-25T16:57:23.398Z,30.13
2018-03-25T16:59:52.436Z,29.53
2018-03-25T17:02:20.828Z,30.27
2018-03-25T17:04:50.285Z,31.23
2018-03-25T17:07:18.613Z,29.23
2018-03-25T17:09:47.053Z,32.57
2018-03-25T17:12:15.428Z,32.07
2018-03-25T17:14:44.180Z,31.10
2018-03-25T17:17:12.514Z,30.43
2018-03-25T17:19:40.804Z,30.17
2018-03-25T17:22:09.079Z,34.07
2018-03-25T17:24:37.378Z,31.87
2018-03-25T17:27:05.777Z,30.67
2018-03-25T17:29:34.168Z,36.10
2018-03-25T17:32:03.207Z,32.80
2018-03-25T17:34:31.543Z,32.83
2018-03-25T17:36:59.801Z,31.90
2018-03-25T17:39:28.107Z,32.10
2018-03-25T17:41:58.693Z,33.00
2018-03-25T17:44:26.963Z,32.63
2018-03-25T17:46:55.291Z,34.47
2018-03-25T17:49:25.142Z,31.83
2018-03-25T17:51:54.354Z,31.47
2018-03-25T17:54:22.906Z,30.90
2018-03-25T17:56:51.352Z,29.40
2018-03-25T17:59:19.680Z,30.27
2018-03-25T18:01:48.414Z,28.63
2018-03-25T18:04:16.715Z,30.83
2018-03-25T18:06:45.110Z,33.10
2018-03-25T18:09:13.593Z,33.30
2018-03-25T18:11:42.157Z,31.70
2018-03-25T18:14:11.973Z,32.20
2018-03-25T18:16:40.298Z,31.47
2018-03-25T18:19:08.834Z,32.67
2018-03-25T18:21:38.101Z,30.53
2018-03-25T18:24:06.414Z,31.23
2018-03-25T18:26:34.719Z,31.00
2018-03-25T18:29:03.945Z,33.37
2018-03-25T18:31:32.594Z,31.80
2018-03-25T18:34:02.901Z,31.83
2018-03-25T18:36:34.054Z,31.00
2018-03-25T18:39:02.832Z,30.53
2018-03-25T18:41:33.396Z,30.90
2018-03-25T18:44:03.383Z,32.83
2018-03-25T18:46:33.512Z,32.30
2018-03-25T18:49:02.555Z,32.07
2018-03-25T18:51:31.156Z,30.40
2018-03-25T18:53:59.468Z,31.07
2018-03-25T18:56:28.576Z,31.67
2018-03-25T18:58:58.295Z,32.67
2018-03-25T19:01:26.743Z,32.77
2018-03-25T19:03:55.433Z,34.30
2018-03-25T19:06:25.258Z,37.13
2018-03-25T19:08:53.658Z,37.07
2018-03-25T19:11:22.754Z,33.77
2018-03-25T19:13:51.209Z,35.60
2018-03-25T19:16:19.587Z,33.30
2018-03-25T19:18:48.620Z,33.87
2018-03-25T19:21:17.131Z,33.70
2018-03-25T19:23:45.415Z,33.60
2018-03-25T19:26:14.219Z,32.63
2018-03-25T19:28:42.682Z,34.43
2018-03-25T19:31:21.329Z,32.47
2018-03-25T19:33:50.801Z,32.70
2018-03-25T19:36:21.269Z,35.90
2018-03-25T19:38:51.126Z,33.83
2018-03-25T19:41:20.993Z,33.10
2018-03-25T19:43:50.085Z,33.27
2018-03-25T19:46:19.396Z,31.70
2018-03-25T19:48:48.921Z,34.97
2018-03-25T19:51:18.610Z,34.63
2018-03-25T19:53:48.116Z,33.37
2018-03-25T19:56:18.375Z,34.47
2018-03-25T19:58:50.128Z,33.93
2018-03-25T20:01:19.405Z,32.80
2018-03-25T20:03:48.709Z,34.40
2018-03-25T20:06:17.078Z,35.87
2018-03-25T20:08:46.229Z,33.80
2018-03-25T20:11:14.971Z,35.07
2018-03-25T20:13:43.279Z,32.47
2018-03-25T20:16:11.582Z,34.20
2018-03-25T20:18:39.941Z,33.67
2018-03-25T20:21:08.291Z,33.73
2018-03-25T20:23:36.715Z,34.20
2018-03-25T20:26:05.044Z,33.70
2018-03-25T20:28:33.315Z,35.50
2018-03-25T20:31:01.578Z,37.60
2018-03-25T20:33:29.860Z,34.60
2018-03-25T20:35:58.277Z,35.70
2018-03-25T20:38:27.320Z,36.47
2018-03-25T20:40:55.600Z,35.57
2018-03-25T20:43:23.970Z,34.70
2018-03-25T20:45:52.238Z,34.03
2018-03-25T20:48:20.670Z,35.97
2018-03-25T20:50:48.965Z,38.33
2018-03-25T20:53:18.062Z,34.77
2018-03-25T20:55:46.931Z,37.20
2018-03-25T20:58:15.182Z,37.93
2018-03-25T21:00:43.511Z,37.30
2018-03-25T21:03:12.551Z,37.90
2018-03-25T21:05:40.873Z,40.83
2018-03-25T21:08:09.108Z,43.63
2018-03-25T21:10:38.564Z,42.40
2018-03-25T21:13:06.812Z,40.10
2018-03-25T21:15:35.930Z,40.43
2018-03-25T21:18:04.177Z,42.17
2018-03-25T21:20:32.634Z,42.87
2018-03-25T21:23:00.942Z,40.07
2018-03-25T21:25:29.221Z,40.57
2018-03-25T21:27:58.310Z,41.67
2018-03-25T21:30:27.396Z,41.27
2018-03-25T21:32:55.663Z,39.63
2018-03-25T21:35:23.927Z,39.00
2018-03-25T21:37:52.208Z,41.97
2018-03-25T21:40:20.497Z,40.90
2018-03-25T21:42:48.800Z,42.60
2018-03-25T21:45:17.063Z,40.67
2018-03-25T21:47:45.325Z,39.50
2018-03-25T21:50:13.555Z,38.83
2018-03-25T21:52:41.803Z,37.97
2018-03-25T21:55:10.068Z,36.13
2018-03-25T21:57:38.316Z,36.00
2018-03-25T22:00:06.597Z,37.60
2018-03-25T22:02:34.920Z,38.37
2018-03-25T22:05:03.211Z,39.30
2018-03-25T22:07:32.112Z,36.40
2018-03-25T22:10:00.405Z,34.00
2018-03-25T22:12:30.455Z,32.57
2018-03-25T22:14:58.721Z,31.97
2018-03-25T22:17:27.883Z,31.83
2018-03-25T22:19:57.916Z,32.03
2018-03-25T22:22:26.959Z,33.80
2018-03-25T22:24:55.259Z,33.13
2018-03-25T22:27:23.510Z,33.20
2018-03-25T22:29:51.802Z,31.13
2018-03-25T22:32:20.110Z,32.23
2018-03-25T22:34:48.792Z,31.73
2018-03-25T22:37:17.026Z,31.50
2018-03-25T22:39:45.297Z,29.70
2018-03-25T22:42:14.397Z,31.70
2018-03-25T22:44:42.635Z,30.77
2018-03-25T22:47:11.690Z,29.97
2018-03-25T22:49:39.974Z,32.30
2018-03-25T22:52:08.217Z,30.87
2018-03-25T22:54:36.483Z,30.40
2018-03-25T22:57:04.831Z,31.80
2018-03-25T22:59:33.097Z,29.50
2018-03-25T23:02:01.373Z,29.53
2018-03-25T23:04:30.334Z,31.60
2018-03-25T23:06:58.587Z,30.40
2018-03-25T23:09:26.889Z,29.80
2018-03-25T23:11:55.156Z,29.90
2018-03-25T23:14:23.439Z,31.87
2018-03-25T23:16:52.285Z,30.03
2018-03-25T23:19:21.334Z,30.83
2018-03-25T23:21:49.593Z,31.43
2018-03-25T23:24:17.873Z,31.57
2018-03-25T23:26:46.164Z,33.00
2018-03-25T23:29:14.445Z,30.47
2018-03-25T23:31:42.725Z,31.80
2018-03-25T23:34:10.966Z,32.00
2018-03-25T23:36:39.281Z,30.90
2018-03-25T23:39:07.544Z,29.87
2018-03-25T23:41:36.208Z,31.40
2018-03-25T23:44:05.959Z,28.53
2018-03-25T23:46:34.229Z,32.93
2018-03-25T23:49:02.506Z,30.53
2018-03-25T23:51:30.746Z,31.60
2018-03-25T23:53:59.054Z,33.03
2018-03-25T23:56:27.271Z,32.30
2018-03-25T23:58:55.545Z,30.13
